sensor_id;sensor_type;location;lat;lon;timestamp;pressure;altitude;pressure_sealevel;temperature;humidity
38530;BME280;24301;54.332;48.386;2023-04-27T00:00:27;98428.19;;;9.71;84.22
38530;BME280;24301;54.332;48.386;2023-04-27T00:02:53;98428.13;;;9.74;84.07
38530;BME280;24301;54.332;48.386;2023-04-27T00:05:19;98435.09;;;9.76;83.96
38530;BME280;24301;54.332;48.386;2023-04-27T00:07:45;98437.72;;;9.75;83.86
38530;BME280;24301;54.332;48.386;2023-04-27T00:10:11;98441.25;;;9.75;83.83
38530;BME280;24301;54.332;48.386;2023-04-27T00:12:38;98437.72;;;9.75;83.53
38530;BME280;24301;54.332;48.386;2023-04-27T00:15:04;98443.88;;;9.74;83.58
38530;BME280;24301;54.332;48.386;2023-04-27T00:17:31;98449.13;;;9.75;83.57
38530;BME280;24301;54.332;48.386;2023-04-27T00:19:58;98456.16;;;9.73;83.35
38530;BME280;24301;54.332;48.386;2023-04-27T00:22:25;98450.00;;;9.74;83.34
38530;BME280;24301;54.332;48.386;2023-04-27T00:24:51;98459.63;;;9.72;83.16
38530;BME280;24301;54.332;48.386;2023-04-27T00:27:17;98458.72;;;9.75;83.16
38530;BME280;24301;54.332;48.386;2023-04-27T00:29:43;98465.72;;;9.76;83.10
38530;BME280;24301;54.332;48.386;2023-04-27T00:32:09;98467.47;;;9.75;82.83
38530;BME280;24301;54.332;48.386;2023-04-27T00:34:36;98474.47;;;9.76;82.71
38530;BME280;24301;54.332;48.386;2023-04-27T00:37:02;98474.47;;;9.76;82.80
38530;BME280;24301;54.332;48.386;2023-04-27T00:39:28;98465.72;;;9.76;82.63
38530;BME280;24301;54.332;48.386;2023-04-27T00:41:55;98482.22;;;9.81;82.57
38530;BME280;24301;54.332;48.386;2023-04-27T00:44:22;98487.53;;;9.80;82.77
38530;BME280;24301;54.332;48.386;2023-04-27T00:46:49;98485.72;;;9.82;82.63
38530;BME280;24301;54.332;48.386;2023-04-27T00:49:15;98485.75;;;9.80;82.78
38530;BME280;24301;54.332;48.386;2023-04-27T00:51:41;98488.41;;;9.78;82.95
38530;BME280;24301;54.332;48.386;2023-04-27T00:54:07;98482.34;;;9.76;82.89
38530;BME280;24301;54.332;48.386;2023-04-27T00:56:35;98491.06;;;9.77;83.01
38530;BME280;24301;54.332;48.386;2023-04-27T00:59:01;98489.31;;;9.76;82.79
38530;BME280;24301;54.332;48.386;2023-04-27T01:01:28;98495.47;;;9.76;83.33
38530;BME280;24301;54.332;48.386;2023-04-27T01:03:55;98500.72;;;9.75;83.02
38530;BME280;24301;54.332;48.386;2023-04-27T01:06:22;98506.81;;;9.77;83.17
38530;BME280;24301;54.332;48.386;2023-04-27T01:08:47;98506.81;;;9.77;83.00
38530;BME280;24301;54.332;48.386;2023-04-27T01:11:13;98505.13;;;9.74;83.14
38530;BME280;24301;54.332;48.386;2023-04-27T01:13:40;98505.16;;;9.71;83.31
38530;BME280;24301;54.332;48.386;2023-04-27T01:16:06;98499.91;;;9.71;83.42
38530;BME280;24301;54.332;48.386;2023-04-27T01:18:32;98509.47;;;9.75;83.47
38530;BME280;24301;54.332;48.386;2023-04-27T01:20:58;98518.19;;;9.77;83.54
38530;BME280;24301;54.332;48.386;2023-04-27T01:23:25;98519.03;;;9.78;83.10
38530;BME280;24301;54.332;48.386;2023-04-27T01:25:51;98523.44;;;9.77;83.02
38530;BME280;24301;54.332;48.386;2023-04-27T01:28:19;98521.69;;;9.76;83.06
38530;BME280;24301;54.332;48.386;2023-04-27T01:30:45;98526.94;;;9.76;83.20
38530;BME280;24301;54.332;48.386;2023-04-27T01:33:11;98519.03;;;9.80;83.26
38530;BME280;24301;54.332;48.386;2023-04-27T01:35:39;98519.91;;;9.78;83.12
38530;BME280;24301;54.332;48.386;2023-04-27T01:38:05;98524.22;;;9.81;83.07
38530;BME280;24301;54.332;48.386;2023-04-27T01:40:31;98525.09;;;9.82;83.25
38530;BME280;24301;54.332;48.386;2023-04-27T01:42:56;98525.88;;;9.88;83.25
38530;BME280;24301;54.332;48.386;2023-04-27T01:45:22;98525.78;;;9.91;83.07
38530;BME280;24301;54.332;48.386;2023-04-27T01:47:52;98531.84;;;9.95;82.89
38530;BME280;24301;54.332;48.386;2023-04-27T01:50:19;98532.66;;;9.97;82.77
38530;BME280;24301;54.332;48.386;2023-04-27T01:52:45;98536.94;;;10.03;82.73
38530;BME280;24301;54.332;48.386;2023-04-27T01:55:12;98532.47;;;10.08;82.82
38530;BME280;24301;54.332;48.386;2023-04-27T01:57:38;98544.13;;;10.39;83.06
38530;BME280;24301;54.332;48.386;2023-04-27T02:00:04;98540.22;;;11.01;82.99
38530;BME280;24301;54.332;48.386;2023-04-27T02:02:47;98548.19;;;11.69;81.28
38530;BME280;24301;54.332;48.386;2023-04-27T02:05:15;98549.16;;;12.32;78.80
38530;BME280;24301;54.332;48.386;2023-04-27T02:07:41;98548.31;;;12.92;76.62
38530;BME280;24301;54.332;48.386;2023-04-27T02:10:07;98548.38;;;13.46;74.41
38530;BME280;24301;54.332;48.386;2023-04-27T02:12:33;98558.25;;;13.93;72.04
38530;BME280;24301;54.332;48.386;2023-04-27T02:15:02;98554.63;;;14.21;70.17
38530;BME280;24301;54.332;48.386;2023-04-27T02:17:29;98558.56;;;14.58;68.93
38530;BME280;24301;54.332;48.386;2023-04-27T02:19:55;98567.84;;;14.94;66.93
38530;BME280;24301;54.332;48.386;2023-04-27T02:22:22;98574.38;;;15.30;65.57
38530;BME280;24301;54.332;48.386;2023-04-27T02:24:48;98564.75;;;15.49;64.13
38530;BME280;24301;54.332;48.386;2023-04-27T02:27:14;98569.75;;;15.78;63.40
38530;BME280;24301;54.332;48.386;2023-04-27T02:29:39;98569.91;;;16.16;61.89
38530;BME280;24301;54.332;48.386;2023-04-27T02:32:05;98562.81;;;16.37;60.44
38530;BME280;24301;54.332;48.386;2023-04-27T02:34:32;98567.41;;;16.53;59.18
38530;BME280;24301;54.332;48.386;2023-04-27T02:36:58;98562.00;;;16.75;58.05
38530;BME280;24301;54.332;48.386;2023-04-27T02:39:24;98570.59;;;17.00;57.20
38530;BME280;24301;54.332;48.386;2023-04-27T02:41:50;98567.72;;;17.23;56.02
38530;BME280;24301;54.332;48.386;2023-04-27T02:44:16;98563.09;;;17.64;55.29
38530;BME280;24301;54.332;48.386;2023-04-27T02:46:42;98570.22;;;17.99;53.96
38530;BME280;24301;54.332;48.386;2023-04-27T02:49:08;98568.81;;;18.27;52.88
38530;BME280;24301;54.332;48.386;2023-04-27T02:51:34;98564.88;;;18.67;51.89
38530;BME280;24301;54.332;48.386;2023-04-27T02:54:00;98572.50;;;19.23;50.72
38530;BME280;24301;54.332;48.386;2023-04-27T02:56:26;98565.81;;;19.63;49.19
38530;BME280;24301;54.332;48.386;2023-04-27T02:58:52;98577.09;;;19.99;48.14
38530;BME280;24301;54.332;48.386;2023-04-27T03:01:18;98573.50;;;20.00;47.19
38530;BME280;24301;54.332;48.386;2023-04-27T03:03:47;98581.75;;;19.95;46.69
38530;BME280;24301;54.332;48.386;2023-04-27T03:06:13;98582.34;;;20.00;46.41
38530;BME280;24301;54.332;48.386;2023-04-27T03:08:39;98591.34;;;20.28;45.86
38530;BME280;24301;54.332;48.386;2023-04-27T03:11:05;98587.56;;;20.47;45.10
38530;BME280;24301;54.332;48.386;2023-04-27T03:13:31;98587.16;;;21.11;44.58
38530;BME280;24301;54.332;48.386;2023-04-27T03:16:09;98590.13;;;21.76;43.49
38530;BME280;24301;54.332;48.386;2023-04-27T03:18:38;98592.13;;;22.25;42.36
38530;BME280;24301;54.332;48.386;2023-04-27T03:21:08;98591.09;;;22.54;41.16
38530;BME280;24301;54.332;48.386;2023-04-27T03:23:34;98588.19;;;22.57;40.90
38530;BME280;24301;54.332;48.386;2023-04-27T03:26:05;98597.16;;;22.82;39.97
38530;BME280;24301;54.332;48.386;2023-04-27T03:28:31;98587.91;;;23.12;39.49
38530;BME280;24301;54.332;48.386;2023-04-27T03:30:57;98599.13;;;23.30;39.06
38530;BME280;24301;54.332;48.386;2023-04-27T03:33:23;98598.94;;;23.45;38.28
38530;BME280;24301;54.332;48.386;2023-04-27T03:35:55;98601.28;;;23.98;37.21
38530;BME280;24301;54.332;48.386;2023-04-27T03:38:23;98595.75;;;24.24;36.87
38530;BME280;24301;54.332;48.386;2023-04-27T03:40:49;98606.50;;;24.24;36.58
38530;BME280;24301;54.332;48.386;2023-04-27T03:43:16;98598.09;;;24.40;36.22
38530;BME280;24301;54.332;48.386;2023-04-27T03:45:43;98600.47;;;24.79;35.80
38530;BME280;24301;54.332;48.386;2023-04-27T03:48:09;98585.41;;;25.33;35.31
38530;BME280;24301;54.332;48.386;2023-04-27T03:50:35;98587.44;;;25.52;33.88
38530;BME280;24301;54.332;48.386;2023-04-27T03:53:01;98581.47;;;25.81;33.82
38530;BME280;24301;54.332;48.386;2023-04-27T03:55:27;98590.66;;;26.33;33.27
38530;BME280;24301;54.332;48.386;2023-04-27T03:57:53;98591.53;;;26.95;32.26
38530;BME280;24301;54.332;48.386;2023-04-27T04:00:20;98588.41;;;27.41;31.28
38530;BME280;24301;54.332;48.386;2023-04-27T04:02:46;98579.19;;;27.53;31.03
38530;BME280;24301;54.332;48.386;2023-04-27T04:05:12;98579.19;;;27.53;30.44
38530;BME280;24301;54.332;48.386;2023-04-27T04:07:40;98582.63;;;27.75;30.43
38530;BME280;24301;54.332;48.386;2023-04-27T04:10:07;98585.44;;;28.13;29.45
38530;BME280;24301;54.332;48.386;2023-04-27T04:12:33;98588.25;;;28.11;29.40
38530;BME280;24301;54.332;48.386;2023-04-27T04:14:59;98586.53;;;28.50;29.13
38530;BME280;24301;54.332;48.386;2023-04-27T04:17:26;98576.06;;;29.31;28.64
38530;BME280;24301;54.332;48.386;2023-04-27T04:19:52;98584.25;;;30.03;27.52
38530;BME280;24301;54.332;48.386;2023-04-27T04:22:18;98584.47;;;30.36;26.57
38530;BME280;24301;54.332;48.386;2023-04-27T04:24:44;98569.88;;;30.29;26.21
38530;BME280;24301;54.332;48.386;2023-04-27T04:27:10;98586.72;;;30.41;26.11
38530;BME280;24301;54.332;48.386;2023-04-27T04:29:36;98593.69;;;30.70;25.86
38530;BME280;24301;54.332;48.386;2023-04-27T04:32:03;98595.06;;;31.17;25.32
38530;BME280;24301;54.332;48.386;2023-04-27T04:34:29;98594.25;;;31.85;24.90
38530;BME280;24301;54.332;48.386;2023-04-27T04:36:56;98600.03;;;32.15;24.37
38530;BME280;24301;54.332;48.386;2023-04-27T04:39:22;98597.25;;;32.73;23.97
38530;BME280;24301;54.332;48.386;2023-04-27T04:41:48;98604.59;;;32.64;23.65
38530;BME280;24301;54.332;48.386;2023-04-27T04:44:15;98608.25;;;32.79;22.96
38530;BME280;24301;54.332;48.386;2023-04-27T04:46:43;98617.13;;;33.30;22.83
38530;BME280;24301;54.332;48.386;2023-04-27T04:49:09;98613.50;;;33.69;22.16
38530;BME280;24301;54.332;48.386;2023-04-27T04:51:35;98609.31;;;33.58;22.22
38530;BME280;24301;54.332;48.386;2023-04-27T04:54:01;98618.38;;;34.05;21.87
38530;BME280;24301;54.332;48.386;2023-04-27T04:56:27;98617.25;;;34.15;21.64
38530;BME280;24301;54.332;48.386;2023-04-27T04:58:54;98608.81;;;33.86;21.56
38530;BME280;24301;54.332;48.386;2023-04-27T05:01:20;98614.63;;;34.06;21.54
38530;BME280;24301;54.332;48.386;2023-04-27T05:03:47;98609.25;;;33.98;21.65
38530;BME280;24301;54.332;48.386;2023-04-27T05:06:13;98614.50;;;34.00;21.10
38530;BME280;24301;54.332;48.386;2023-04-27T05:08:39;98604.53;;;34.30;20.93
38530;BME280;24301;54.332;48.386;2023-04-27T05:11:05;98610.81;;;34.31;21.17
38530;BME280;24301;54.332;48.386;2023-04-27T05:13:31;98609.50;;;34.65;20.67
38530;BME280;24301;54.332;48.386;2023-04-27T05:15:56;98602.16;;;34.50;20.71
38530;BME280;24301;54.332;48.386;2023-04-27T05:18:22;98605.34;;;34.84;20.26
38530;BME280;24301;54.332;48.386;2023-04-27T05:20:48;98616.38;;;35.21;20.23
38530;BME280;24301;54.332;48.386;2023-04-27T05:23:14;98606.59;;;35.63;19.76
38530;BME280;24301;54.332;48.386;2023-04-27T05:25:40;98613.31;;;35.83;19.38
38530;BME280;24301;54.332;48.386;2023-04-27T05:28:07;98616.09;;;36.11;19.20
38530;BME280;24301;54.332;48.386;2023-04-27T05:30:33;98619.00;;;36.53;18.89
38530;BME280;24301;54.332;48.386;2023-04-27T05:33:01;98621.63;;;36.68;18.74
38530;BME280;24301;54.332;48.386;2023-04-27T05:35:26;98622.50;;;36.75;18.44
38530;BME280;24301;54.332;48.386;2023-04-27T05:37:52;98622.16;;;36.57;18.46
38530;BME280;24301;54.332;48.386;2023-04-27T05:40:18;98612.72;;;36.59;18.41
38530;BME280;24301;54.332;48.386;2023-04-27T05:42:47;98616.38;;;37.02;18.25
38530;BME280;24301;54.332;48.386;2023-04-27T05:45:13;98606.75;;;37.19;17.92
38530;BME280;24301;54.332;48.386;2023-04-27T05:47:39;98616.25;;;36.88;17.72
38530;BME280;24301;54.332;48.386;2023-04-27T05:50:05;98623.19;;;36.84;17.94
38530;BME280;24301;54.332;48.386;2023-04-27T05:52:32;98629.75;;;37.32;17.74
38530;BME280;24301;54.332;48.386;2023-04-27T05:54:58;98631.56;;;37.73;17.51
38530;BME280;24301;54.332;48.386;2023-04-27T05:57:25;98640.13;;;38.05;17.06
38530;BME280;24301;54.332;48.386;2023-04-27T05:59:51;98632.63;;;37.72;17.61
38530;BME280;24301;54.332;48.386;2023-04-27T06:02:18;98636.88;;;37.81;17.11
38530;BME280;24301;54.332;48.386;2023-04-27T06:04:44;98638.38;;;37.35;17.46
38530;BME280;24301;54.332;48.386;2023-04-27T06:07:12;98641.00;;;36.73;17.74
38530;BME280;24301;54.332;48.386;2023-04-27T06:09:39;98630.94;;;36.02;18.78
38530;BME280;24301;54.332;48.386;2023-04-27T06:12:06;98633.31;;;35.68;19.11
38530;BME280;24301;54.332;48.386;2023-04-27T06:14:34;98639.72;;;35.75;19.10
38530;BME280;24301;54.332;48.386;2023-04-27T06:17:01;98654.88;;;36.21;18.80
38530;BME280;24301;54.332;48.386;2023-04-27T06:19:27;98646.59;;;36.36;18.77
38530;BME280;24301;54.332;48.386;2023-04-27T06:21:54;98646.59;;;36.36;18.39
38530;BME280;24301;54.332;48.386;2023-04-27T06:24:20;98638.97;;;36.32;18.50
38530;BME280;24301;54.332;48.386;2023-04-27T06:26:48;98650.78;;;36.10;18.60
38530;BME280;24301;54.332;48.386;2023-04-27T06:29:14;98647.88;;;36.41;18.43
38530;BME280;24301;54.332;48.386;2023-04-27T06:31:40;98659.97;;;36.81;18.25
38530;BME280;24301;54.332;48.386;2023-04-27T06:34:06;98664.63;;;36.81;18.05
38530;BME280;24301;54.332;48.386;2023-04-27T06:36:32;98653.81;;;36.73;18.39
38530;BME280;24301;54.332;48.386;2023-04-27T06:38:58;98652.00;;;36.80;18.04
38530;BME280;24301;54.332;48.386;2023-04-27T06:41:25;98656.00;;;36.84;18.19
38530;BME280;24301;54.332;48.386;2023-04-27T06:43:52;98655.31;;;37.04;17.93
38530;BME280;24301;54.332;48.386;2023-04-27T06:46:19;98657.59;;;37.00;17.39
38530;BME280;24301;54.332;48.386;2023-04-27T06:48:45;98653.69;;;36.81;17.67
38530;BME280;24301;54.332;48.386;2023-04-27T06:51:12;98661.22;;;36.50;17.74
38530;BME280;24301;54.332;48.386;2023-04-27T06:53:38;98654.06;;;36.49;17.74
38530;BME280;24301;54.332;48.386;2023-04-27T06:56:05;98658.25;;;36.74;17.74
38530;BME280;24301;54.332;48.386;2023-04-27T06:58:32;98649.09;;;36.88;17.79
38530;BME280;24301;54.332;48.386;2023-04-27T07:00:57;98656.47;;;36.94;17.58
38530;BME280;24301;54.332;48.386;2023-04-27T07:03:23;98660.78;;;37.46;17.59
38530;BME280;24301;54.332;48.386;2023-04-27T07:05:49;98660.16;;;38.19;16.63
38530;BME280;24301;54.332;48.386;2023-04-27T07:08:16;98652.31;;;38.77;16.19
38530;BME280;24301;54.332;48.386;2023-04-27T07:10:42;98649.13;;;38.87;15.67
38530;BME280;24301;54.332;48.386;2023-04-27T07:13:08;98652.53;;;38.75;15.49
38530;BME280;24301;54.332;48.386;2023-04-27T07:15:34;98642.59;;;38.88;15.57
38530;BME280;24301;54.332;48.386;2023-04-27T07:18:00;98646.00;;;38.43;15.97
38530;BME280;24301;54.332;48.386;2023-04-27T07:20:26;98640.28;;;37.97;15.69
38530;BME280;24301;54.332;48.386;2023-04-27T07:22:52;98646.13;;;37.74;16.04
38530;BME280;24301;54.332;48.386;2023-04-27T07:25:18;98655.38;;;37.66;16.05
38530;BME280;24301;54.332;48.386;2023-04-27T07:27:44;98648.66;;;37.75;16.08
38530;BME280;24301;54.332;48.386;2023-04-27T07:30:11;98649.09;;;37.79;15.59
38530;BME280;24301;54.332;48.386;2023-04-27T07:32:39;98645.91;;;37.62;16.00
38530;BME280;24301;54.332;48.386;2023-04-27T07:35:09;98640.19;;;37.57;15.64
38530;BME280;24301;54.332;48.386;2023-04-27T07:37:36;98642.22;;;36.99;15.70
38530;BME280;24301;54.332;48.386;2023-04-27T07:40:03;98640.28;;;37.00;16.15
38530;BME280;24301;54.332;48.386;2023-04-27T07:42:41;98644.38;;;34.85;17.64
38530;BME280;24301;54.332;48.386;2023-04-27T07:45:08;98635.16;;;33.62;17.28
38530;BME280;24301;54.332;48.386;2023-04-27T07:47:35;98640.63;;;33.22;17.41
38530;BME280;24301;54.332;48.386;2023-04-27T07:50:01;98637.81;;;34.41;16.60
38530;BME280;24301;54.332;48.386;2023-04-27T07:52:29;98629.41;;;35.41;15.88
38530;BME280;24301;54.332;48.386;2023-04-27T07:54:55;98634.44;;;35.95;15.51
38530;BME280;24301;54.332;48.386;2023-04-27T07:57:21;98643.09;;;35.10;15.46
38530;BME280;24301;54.332;48.386;2023-04-27T07:59:47;98638.91;;;34.85;15.72
38530;BME280;24301;54.332;48.386;2023-04-27T08:02:13;98635.25;;;34.77;15.96
38530;BME280;24301;54.332;48.386;2023-04-27T08:04:39;98621.63;;;34.01;16.25
38530;BME280;24301;54.332;48.386;2023-04-27T08:07:05;98638.75;;;32.25;17.33
38530;BME280;24301;54.332;48.386;2023-04-27T08:09:31;98614.97;;;30.38;18.52
38530;BME280;24301;54.332;48.386;2023-04-27T08:11:57;98623.53;;;28.87;20.26
38530;BME280;24301;54.332;48.386;2023-04-27T08:14:23;98606.22;;;27.83;21.14
38530;BME280;24301;54.332;48.386;2023-04-27T08:16:49;98613.25;;;27.04;21.58
38530;BME280;24301;54.332;48.386;2023-04-27T08:19:17;98611.72;;;26.28;22.26
38530;BME280;24301;54.332;48.386;2023-04-27T08:21:43;98602.41;;;25.78;23.11
38530;BME280;24301;54.332;48.386;2023-04-27T08:24:09;98614.75;;;25.14;23.58
38530;BME280;24301;54.332;48.386;2023-04-27T08:26:35;98620.84;;;24.59;24.57
38530;BME280;24301;54.332;48.386;2023-04-27T08:29:01;98604.28;;;24.18;25.53
38530;BME280;24301;54.332;48.386;2023-04-27T08:31:27;98601.00;;;23.90;25.92
38530;BME280;24301;54.332;48.386;2023-04-27T08:33:54;98603.97;;;23.74;26.22
38530;BME280;24301;54.332;48.386;2023-04-27T08:36:21;98614.56;;;23.64;26.75
38530;BME280;24301;54.332;48.386;2023-04-27T08:38:53;98595.97;;;23.61;26.86
38530;BME280;24301;54.332;48.386;2023-04-27T08:41:22;98601.75;;;23.43;27.32
38530;BME280;24301;54.332;48.386;2023-04-27T08:43:50;98603.38;;;23.33;27.21
38530;BME280;24301;54.332;48.386;2023-04-27T08:46:20;98590.91;;;23.07;27.93
38530;BME280;24301;54.332;48.386;2023-04-27T08:48:48;98595.09;;;22.99;28.11
38530;BME280;24301;54.332;48.386;2023-04-27T08:51:15;98603.53;;;23.18;28.29
38530;BME280;24301;54.332;48.386;2023-04-27T08:53:54;98596.84;;;23.24;28.28
38530;BME280;24301;54.332;48.386;2023-04-27T08:56:22;98601.16;;;23.27;28.31
38530;BME280;24301;54.332;48.386;2023-04-27T08:58:56;98596.88;;;23.37;28.14
38530;BME280;24301;54.332;48.386;2023-04-27T09:01:27;98574.00;;;23.44;27.57
38530;BME280;24301;54.332;48.386;2023-04-27T09:04:00;98592.13;;;23.41;27.77
38530;BME280;24301;54.332;48.386;2023-04-27T09:06:30;98599.22;;;23.29;27.20
38530;BME280;24301;54.332;48.386;2023-04-27T09:08:58;98598.06;;;23.07;27.12
38530;BME280;24301;54.332;48.386;2023-04-27T09:11:32;98593.47;;;23.09;26.38
38530;BME280;24301;54.332;48.386;2023-04-27T09:14:01;98599.03;;;23.06;25.94
38530;BME280;24301;54.332;48.386;2023-04-27T09:16:29;98587.13;;;23.10;26.32
38530;BME280;24301;54.332;48.386;2023-04-27T09:18:57;98598.97;;;22.94;26.51
38530;BME280;24301;54.332;48.386;2023-04-27T09:21:24;98589.16;;;22.69;26.36
38530;BME280;24301;54.332;48.386;2023-04-27T09:23:51;98578.78;;;22.77;26.06
38530;BME280;24301;54.332;48.386;2023-04-27T09:26:23;98590.53;;;22.88;25.33
38530;BME280;24301;54.332;48.386;2023-04-27T09:28:51;98586.44;;;22.82;26.00
38530;BME280;24301;54.332;48.386;2023-04-27T09:31:17;98583.69;;;22.84;25.93
38530;BME280;24301;54.332;48.386;2023-04-27T09:33:44;98594.69;;;22.92;26.57
38530;BME280;24301;54.332;48.386;2023-04-27T09:36:10;98583.19;;;23.03;26.35
38530;BME280;24301;54.332;48.386;2023-04-27T09:38:37;98586.31;;;22.96;26.09
38530;BME280;24301;54.332;48.386;2023-04-27T09:41:03;98598.22;;;22.92;26.31
38530;BME280;24301;54.332;48.386;2023-04-27T09:43:29;98603.25;;;22.97;26.61
38530;BME280;24301;54.332;48.386;2023-04-27T09:45:56;98594.34;;;23.09;26.45
38530;BME280;24301;54.332;48.386;2023-04-27T09:48:24;98591.41;;;23.25;26.21
38530;BME280;24301;54.332;48.386;2023-04-27T09:50:51;98589.16;;;23.32;25.69
38530;BME280;24301;54.332;48.386;2023-04-27T09:53:29;98594.28;;;23.35;25.70
38530;BME280;24301;54.332;48.386;2023-04-27T09:56:22;98594.69;;;23.42;26.08
38530;BME280;24301;54.332;48.386;2023-04-27T10:01:38;98587.22;;;23.21;26.31
38530;BME280;24301;54.332;48.386;2023-04-27T10:07:02;98601.06;;;23.28;25.74
38530;BME280;24301;54.332;48.386;2023-04-27T10:09:49;98588.81;;;23.37;25.72
38530;BME280;24301;54.332;48.386;2023-04-27T10:12:34;98590.00;;;23.33;25.94
38530;BME280;24301;54.332;48.386;2023-04-27T10:15:14;98584.34;;;23.49;26.04
38530;BME280;24301;54.332;48.386;2023-04-27T10:17:48;98573.00;;;23.45;25.65
38530;BME280;24301;54.332;48.386;2023-04-27T10:20:15;98592.13;;;23.41;25.52
38530;BME280;24301;54.332;48.386;2023-04-27T10:22:44;98601.06;;;23.52;26.02
38530;BME280;24301;54.332;48.386;2023-04-27T10:25:19;98600.84;;;23.56;25.40
38530;BME280;24301;54.332;48.386;2023-04-27T10:27:52;98605.19;;;23.45;25.51
38530;BME280;24301;54.332;48.386;2023-04-27T10:30:20;98602.72;;;23.42;25.54
38530;BME280;24301;54.332;48.386;2023-04-27T10:32:54;98597.53;;;23.28;25.49
38530;BME280;24301;54.332;48.386;2023-04-27T10:35:31;98595.81;;;23.27;26.10
38530;BME280;24301;54.332;48.386;2023-04-27T10:38:14;98590.59;;;23.49;26.22
38530;BME280;24301;54.332;48.386;2023-04-27T10:40:43;98598.22;;;23.67;26.27
38530;BME280;24301;54.332;48.386;2023-04-27T10:43:12;98580.66;;;23.63;25.77
38530;BME280;24301;54.332;48.386;2023-04-27T10:45:38;98587.16;;;23.47;25.30
38530;BME280;24301;54.332;48.386;2023-04-27T10:48:05;98592.81;;;23.31;25.06
38530;BME280;24301;54.332;48.386;2023-04-27T10:50:32;98575.88;;;23.18;25.38
38530;BME280;24301;54.332;48.386;2023-04-27T10:53:03;98580.00;;;22.98;25.28
38530;BME280;24301;54.332;48.386;2023-04-27T10:55:30;98584.97;;;22.78;25.24
38530;BME280;24301;54.332;48.386;2023-04-27T10:57:56;98586.81;;;22.77;25.40
38530;BME280;24301;54.332;48.386;2023-04-27T11:00:24;98576.28;;;22.87;25.85
38530;BME280;24301;54.332;48.386;2023-04-27T11:02:55;98579.88;;;23.12;25.57
38530;BME280;24301;54.332;48.386;2023-04-27T11:05:26;98582.91;;;23.32;25.30
38530;BME280;24301;54.332;48.386;2023-04-27T11:08:05;98570.88;;;23.13;25.13
38530;BME280;24301;54.332;48.386;2023-04-27T11:10:31;98573.28;;;22.79;25.04
38530;BME280;24301;54.332;48.386;2023-04-27T11:12:58;98578.13;;;22.74;24.78
38530;BME280;24301;54.332;48.386;2023-04-27T11:15:24;98561.81;;;22.77;24.80
38530;BME280;24301;54.332;48.386;2023-04-27T11:17:51;98568.41;;;22.97;24.53
38530;BME280;24301;54.332;48.386;2023-04-27T11:20:24;98565.28;;;23.16;25.01
38530;BME280;24301;54.332;48.386;2023-04-27T11:22:50;98569.00;;;23.27;24.69
38530;BME280;24301;54.332;48.386;2023-04-27T11:25:16;98565.56;;;23.24;24.16
38530;BME280;24301;54.332;48.386;2023-04-27T11:27:42;98573.88;;;23.08;24.91
38530;BME280;24301;54.332;48.386;2023-04-27T11:30:20;98568.84;;;23.04;25.06
38530;BME280;24301;54.332;48.386;2023-04-27T11:32:47;98566.47;;;23.12;25.09
38530;BME280;24301;54.332;48.386;2023-04-27T11:35:13;98575.13;;;23.29;24.82
38530;BME280;24301;54.332;48.386;2023-04-27T11:37:40;98566.47;;;23.25;24.61
38530;BME280;24301;54.332;48.386;2023-04-27T11:40:07;98577.91;;;23.27;24.77
38530;BME280;24301;54.332;48.386;2023-04-27T11:42:34;98565.84;;;23.08;24.41
38530;BME280;24301;54.332;48.386;2023-04-27T11:45:03;98564.16;;;22.94;24.66
38530;BME280;24301;54.332;48.386;2023-04-27T11:47:33;98570.31;;;23.08;24.87
38530;BME280;24301;54.332;48.386;2023-04-27T11:50:05;98563.94;;;23.22;24.64
38530;BME280;24301;54.332;48.386;2023-04-27T11:52:35;98570.31;;;23.08;25.14
38530;BME280;24301;54.332;48.386;2023-04-27T11:55:03;98565.09;;;23.06;24.94
38530;BME280;24301;54.332;48.386;2023-04-27T11:57:34;98564.97;;;23.08;25.21
38530;BME280;24301;54.332;48.386;2023-04-27T12:00:04;98566.56;;;23.10;25.51
38530;BME280;24301;54.332;48.386;2023-04-27T12:02:40;98578.22;;;23.22;25.73
38530;BME280;24301;54.332;48.386;2023-04-27T12:05:07;98566.22;;;23.28;25.95
38530;BME280;24301;54.332;48.386;2023-04-27T12:07:34;98567.81;;;23.31;25.61
38530;BME280;24301;54.332;48.386;2023-04-27T12:10:01;98570.19;;;23.22;26.05
38530;BME280;24301;54.332;48.386;2023-04-27T12:12:31;98576.31;;;23.11;26.22
38530;BME280;24301;54.332;48.386;2023-04-27T12:14:58;98569.72;;;23.04;26.48
38530;BME280;24301;54.332;48.386;2023-04-27T12:17:24;98573.56;;;23.00;26.33
38530;BME280;24301;54.332;48.386;2023-04-27T12:19:50;98579.25;;;22.95;26.31
38530;BME280;24301;54.332;48.386;2023-04-27T12:22:16;98581.06;;;22.95;26.78
38530;BME280;24301;54.332;48.386;2023-04-27T12:24:42;98576.38;;;22.86;27.35
38530;BME280;24301;54.332;48.386;2023-04-27T12:27:08;98558.84;;;22.81;27.27
38530;BME280;24301;54.332;48.386;2023-04-27T12:29:34;98576.94;;;22.65;27.40
38530;BME280;24301;54.332;48.386;2023-04-27T12:32:00;98574.16;;;22.66;27.60
38530;BME280;24301;54.332;48.386;2023-04-27T12:34:26;98584.50;;;22.84;27.76
38530;BME280;24301;54.332;48.386;2023-04-27T12:36:53;98583.88;;;22.93;27.07
38530;BME280;24301;54.332;48.386;2023-04-27T12:39:21;98595.22;;;22.84;27.06
38530;BME280;24301;54.332;48.386;2023-04-27T12:41:50;98595.38;;;22.57;27.04
38530;BME280;24301;54.332;48.386;2023-04-27T12:44:17;98596.94;;;22.33;27.84
38530;BME280;24301;54.332;48.386;2023-04-27T12:46:44;98596.50;;;22.14;27.65
38530;BME280;24301;54.332;48.386;2023-04-27T12:49:10;98598.75;;;22.07;27.75
38530;BME280;24301;54.332;48.386;2023-04-27T12:51:37;98595.88;;;22.23;27.85
38530;BME280;24301;54.332;48.386;2023-04-27T12:54:03;98593.50;;;22.31;27.38
38530;BME280;24301;54.332;48.386;2023-04-27T12:56:30;98594.38;;;22.32;27.69
38530;BME280;24301;54.332;48.386;2023-04-27T12:58:57;98595.66;;;22.26;27.72